sensor_id;sensor_type;location;lat;lon;timestamp;pressure;altitude;pressure_sealevel;temperature;humidity
71774;BME280;59607;52.130;5.430;2024-01-10T00:00:00;103350.00;;;-3.80;73.71
71774;BME280;59607;52.130;5.430;2024-01-10T00:02:29;103347.44;;;-3.80;74.47
71774;BME280;59607;52.130;5.430;2024-01-10T00:04:56;103344.88;;;-3.80;74.75
71774;BME280;59607;52.130;5.430;2024-01-10T00:07:30;103340.56;;;-3.81;74.48
71774;BME280;59607;52.130;5.430;2024-01-10T00:09:57;103340.56;;;-3.81;74.85
71774;BME280;59607;52.130;5.430;2024-01-10T00:12:28;103346.56;;;-3.80;75.28
71774;BME280;59607;52.130;5.430;2024-01-10T00:14:59;103338.88;;;-3.82;75.35
71774;BME280;59607;52.130;5.430;2024-01-10T00:17:26;103346.56;;;-3.82;75.13
71774;BME280;59607;52.130;5.430;2024-01-10T00:19:58;103341.47;;;-3.84;75.33
71774;BME280;59607;52.130;5.430;2024-01-10T00:22:24;103344.88;;;-3.85;75.80
71774;BME280;59607;52.130;5.430;2024-01-10T00:24:51;103340.59;;;-3.84;76.14
71774;BME280;59607;52.130;5.430;2024-01-10T00:27:26;103340.59;;;-3.84;76.13
71774;BME280;59607;52.130;5.430;2024-01-10T00:29:58;103337.19;;;-3.85;76.19
71774;BME280;59607;52.130;5.430;2024-01-10T00:32:25;103332.06;;;-3.86;76.71
71774;BME280;59607;52.130;5.430;2024-01-10T00:34:51;103335.47;;;-3.86;76.61
71774;BME280;59607;52.130;5.430;2024-01-10T00:37:24;103329.50;;;-3.85;76.48
71774;BME280;59607;52.130;5.430;2024-01-10T00:39:52;103332.91;;;-3.84;76.62
71774;BME280;59607;52.130;5.430;2024-01-10T00:42:20;103326.06;;;-3.84;77.26
71774;BME280;59607;52.130;5.430;2024-01-10T00:44:48;103328.63;;;-3.84;76.77
71774;BME280;59607;52.130;5.430;2024-01-10T00:47:17;103317.53;;;-3.87;76.50
71774;BME280;59607;52.130;5.430;2024-01-10T00:49:43;103326.94;;;-3.86;77.09
71774;BME280;59607;52.130;5.430;2024-01-10T00:52:13;103320.97;;;-3.87;76.98
71774;BME280;59607;52.130;5.430;2024-01-10T00:54:43;103314.13;;;-3.85;77.22
71774;BME280;59607;52.130;5.430;2024-01-10T00:57:10;103314.13;;;-3.85;77.15
71774;BME280;59607;52.130;5.430;2024-01-10T00:59:42;103316.66;;;-3.81;76.98
71774;BME280;59607;52.130;5.430;2024-01-10T01:02:09;103317.50;;;-3.82;77.13
71774;BME280;59607;52.130;5.430;2024-01-10T01:04:44;103315.81;;;-3.84;77.05
71774;BME280;59607;52.130;5.430;2024-01-10T01:07:10;103320.94;;;-3.84;77.42
71774;BME280;59607;52.130;5.430;2024-01-10T01:09:37;103316.69;;;-3.85;77.25
71774;BME280;59607;52.130;5.430;2024-01-10T01:12:20;103317.50;;;-3.84;77.55
71774;BME280;59607;52.130;5.430;2024-01-10T01:14:55;103314.13;;;-3.86;77.15
71774;BME280;59607;52.130;5.430;2024-01-10T01:17:22;103319.25;;;-3.88;76.99
71774;BME280;59607;52.130;5.430;2024-01-10T01:19:53;103311.56;;;-3.88;77.81
71774;BME280;59607;52.130;5.430;2024-01-10T01:22:19;103316.69;;;-3.85;77.71
71774;BME280;59607;52.130;5.430;2024-01-10T01:24:48;103311.56;;;-3.86;77.56
71774;BME280;59607;52.130;5.430;2024-01-10T01:27:28;103311.56;;;-3.89;77.44
71774;BME280;59607;52.130;5.430;2024-01-10T01:30:00;103311.56;;;-3.91;77.27
71774;BME280;59607;52.130;5.430;2024-01-10T01:32:26;103309.00;;;-3.94;77.06
71774;BME280;59607;52.130;5.430;2024-01-10T01:34:53;103307.31;;;-3.95;77.55
71774;BME280;59607;52.130;5.430;2024-01-10T01:37:23;103309.88;;;-3.95;77.58
71774;BME280;59607;52.130;5.430;2024-01-10T01:39:49;103309.88;;;-3.95;77.40
71774;BME280;59607;52.130;5.430;2024-01-10T01:42:16;103304.75;;;-3.95;77.65
71774;BME280;59607;52.130;5.430;2024-01-10T01:44:59;103300.50;;;-3.98;77.91
71774;BME280;59607;52.130;5.430;2024-01-10T01:47:38;103298.75;;;-3.97;77.51
71774;BME280;59607;52.130;5.430;2024-01-10T01:50:11;103290.25;;;-3.98;77.70
71774;BME280;59607;52.130;5.430;2024-01-10T01:52:38;103286.81;;;-4.00;77.77
71774;BME280;59607;52.130;5.430;2024-01-10T01:55:14;103281.69;;;-4.01;77.58
71774;BME280;59607;52.130;5.430;2024-01-10T01:57:41;103284.25;;;-4.01;77.55
71774;BME280;59607;52.130;5.430;2024-01-10T02:00:18;103284.28;;;-4.04;78.15
71774;BME280;59607;52.130;5.430;2024-01-10T02:02:44;103277.44;;;-4.05;78.14
71774;BME280;59607;52.130;5.430;2024-01-10T02:05:15;103289.41;;;-4.06;78.05
71774;BME280;59607;52.130;5.430;2024-01-10T02:07:49;103289.44;;;-4.11;78.21
71774;BME280;59607;52.130;5.430;2024-01-10T02:10:22;103284.31;;;-4.11;78.33
71774;BME280;59607;52.130;5.430;2024-01-10T02:12:49;103286.88;;;-4.14;79.29
71774;BME280;59607;52.130;5.430;2024-01-10T02:15:15;103281.75;;;-4.14;79.71
71774;BME280;59607;52.130;5.430;2024-01-10T02:17:48;103282.59;;;-4.15;79.54
71774;BME280;59607;52.130;5.430;2024-01-10T02:20:15;103274.06;;;-4.18;80.05
71774;BME280;59607;52.130;5.430;2024-01-10T02:22:58;103258.69;;;-4.23;80.47
71774;BME280;59607;52.130;5.430;2024-01-10T02:25:40;103259.56;;;-4.27;80.49
71774;BME280;59607;52.130;5.430;2024-01-10T02:28:13;103258.72;;;-4.28;80.66
71774;BME280;59607;52.130;5.430;2024-01-10T02:30:39;103256.16;;;-4.29;80.56
71774;BME280;59607;52.130;5.430;2024-01-10T02:33:06;103252.78;;;-4.31;81.39
71774;BME280;59607;52.130;5.430;2024-01-10T02:35:39;103254.47;;;-4.34;81.66
71774;BME280;59607;52.130;5.430;2024-01-10T02:38:07;103257.03;;;-4.34;82.05
71774;BME280;59607;52.130;5.430;2024-01-10T02:41:10;103249.34;;;-4.37;82.33
71774;BME280;59607;52.130;5.430;2024-01-10T02:43:37;103244.25;;;-4.40;82.15
71774;BME280;59607;52.130;5.430;2024-01-10T02:46:03;103249.38;;;-4.41;82.93
71774;BME280;59607;52.130;5.430;2024-01-10T02:48:30;103251.09;;;-4.43;82.87
71774;BME280;59607;52.130;5.430;2024-01-10T02:50:57;103244.25;;;-4.41;83.28
71774;BME280;59607;52.130;5.430;2024-01-10T02:53:35;103251.97;;;-4.46;83.50
71774;BME280;59607;52.130;5.430;2024-01-10T02:56:16;103250.22;;;-4.47;83.27
71774;BME280;59607;52.130;5.430;2024-01-10T02:58:46;103249.38;;;-4.49;83.79
71774;BME280;59607;52.130;5.430;2024-01-10T03:01:21;103250.22;;;-4.49;84.44
71774;BME280;59607;52.130;5.430;2024-01-10T03:03:54;103251.94;;;-4.49;84.36
71774;BME280;59607;52.130;5.430;2024-01-10T03:06:21;103252.78;;;-4.47;84.63
71774;BME280;59607;52.130;5.430;2024-01-10T03:08:48;103245.13;;;-4.49;84.46
71774;BME280;59607;52.130;5.430;2024-01-10T03:11:20;103256.22;;;-4.48;84.83
71774;BME280;59607;52.130;5.430;2024-01-10T03:13:47;103248.56;;;-4.53;85.06
71774;BME280;59607;52.130;5.430;2024-01-10T03:16:20;103248.53;;;-4.50;85.09
71774;BME280;59607;52.130;5.430;2024-01-10T03:18:47;103245.97;;;-4.50;85.46
71774;BME280;59607;52.130;5.430;2024-01-10T03:21:17;103246.00;;;-4.54;85.87
71774;BME280;59607;52.130;5.430;2024-01-10T03:23:49;103239.16;;;-4.55;85.73
71774;BME280;59607;52.130;5.430;2024-01-10T03:26:15;103241.72;;;-4.55;84.95
71774;BME280;59607;52.130;5.430;2024-01-10T03:28:50;103240.03;;;-4.61;85.37
71774;BME280;59607;52.130;5.430;2024-01-10T03:31:20;103235.75;;;-4.61;85.47
71774;BME280;59607;52.130;5.430;2024-01-10T03:33:52;103234.03;;;-4.59;86.00
71774;BME280;59607;52.130;5.430;2024-01-10T03:36:18;103242.59;;;-4.61;86.23
71774;BME280;59607;52.130;5.430;2024-01-10T03:38:45;103241.72;;;-4.59;85.37
71774;BME280;59607;52.130;5.430;2024-01-10T03:41:18;103234.03;;;-4.62;85.69
71774;BME280;59607;52.130;5.430;2024-01-10T03:43:45;103242.59;;;-4.63;86.17
71774;BME280;59607;52.130;5.430;2024-01-10T03:46:26;103231.47;;;-4.59;86.15
71774;BME280;59607;52.130;5.430;2024-01-10T03:48:55;103238.31;;;-4.57;85.76
71774;BME280;59607;52.130;5.430;2024-01-10T03:51:24;103230.66;;;-4.59;85.67
71774;BME280;59607;52.130;5.430;2024-01-10T03:53:51;103229.78;;;-4.61;85.73
71774;BME280;59607;52.130;5.430;2024-01-10T03:56:24;103230.63;;;-4.64;86.01
71774;BME280;59607;52.130;5.430;2024-01-10T03:58:50;103229.78;;;-4.63;86.18
71774;BME280;59607;52.130;5.430;2024-01-10T04:01:22;103224.66;;;-4.61;86.03
71774;BME280;59607;52.130;5.430;2024-01-10T04:03:48;103228.06;;;-4.59;85.63
71774;BME280;59607;52.130;5.430;2024-01-10T04:06:15;103219.53;;;-4.61;86.01
71774;BME280;59607;52.130;5.430;2024-01-10T04:08:44;103217.81;;;-4.62;85.96
71774;BME280;59607;52.130;5.430;2024-01-10T04:11:16;103216.13;;;-4.63;86.07
71774;BME280;59607;52.130;5.430;2024-01-10T04:13:47;103213.56;;;-4.65;85.91
71774;BME280;59607;52.130;5.430;2024-01-10T04:16:15;103222.94;;;-4.67;85.54
71774;BME280;59607;52.130;5.430;2024-01-10T04:18:42;103215.28;;;-4.68;86.08
71774;BME280;59607;52.130;5.430;2024-01-10T04:21:14;103217.84;;;-4.68;85.56
71774;BME280;59607;52.130;5.430;2024-01-10T04:23:43;103219.56;;;-4.71;85.74
71774;BME280;59607;52.130;5.430;2024-01-10T04:26:10;103231.50;;;-4.71;86.18
71774;BME280;59607;52.130;5.430;2024-01-10T04:28:53;103228.09;;;-4.75;86.32
71774;BME280;59607;52.130;5.430;2024-01-10T04:31:26;103224.69;;;-4.72;85.92
71774;BME280;59607;52.130;5.430;2024-01-10T04:33:52;103220.41;;;-4.75;86.25
71774;BME280;59607;52.130;5.430;2024-01-10T04:39:04;103217.00;;;-4.77;86.19
71774;BME280;59607;52.130;5.430;2024-01-10T04:41:30;103215.31;;;-4.78;85.98
71774;BME280;59607;52.130;5.430;2024-01-10T04:43:57;103216.16;;;-4.77;85.48
71774;BME280;59607;52.130;5.430;2024-01-10T04:46:26;103213.59;;;-4.77;85.86
71774;BME280;59607;52.130;5.430;2024-01-10T04:48:55;103201.63;;;-4.80;85.89
71774;BME280;59607;52.130;5.430;2024-01-10T04:51:21;103211.88;;;-4.80;85.83
71774;BME280;59607;52.130;5.430;2024-01-10T04:53:50;103211.88;;;-4.81;85.67
71774;BME280;59607;52.130;5.430;2024-01-10T04:56:25;103211.88;;;-4.80;86.07
71774;BME280;59607;52.130;5.430;2024-01-10T04:58:52;103212.75;;;-4.79;86.21
71774;BME280;59607;52.130;5.430;2024-01-10T05:01:21;103194.81;;;-4.83;86.04
71774;BME280;59607;52.130;5.430;2024-01-10T05:03:48;103200.81;;;-4.82;85.62
71774;BME280;59607;52.130;5.430;2024-01-10T05:06:14;103195.69;;;-4.82;85.50
71774;BME280;59607;52.130;5.430;2024-01-10T05:08:41;103196.53;;;-4.83;86.04
71774;BME280;59607;52.130;5.430;2024-01-10T05:11:07;103195.69;;;-4.84;85.41
71774;BME280;59607;52.130;5.430;2024-01-10T05:13:34;103193.13;;;-4.82;85.83
71774;BME280;59607;52.130;5.430;2024-01-10T05:16:05;103193.97;;;-4.85;86.17
71774;BME280;59607;52.130;5.430;2024-01-10T05:18:31;103193.13;;;-4.85;86.00
71774;BME280;59607;52.130;5.430;2024-01-10T05:20:59;103193.13;;;-4.85;85.92
71774;BME280;59607;52.130;5.430;2024-01-10T05:23:26;103191.41;;;-4.86;85.81
71774;BME280;59607;52.130;5.430;2024-01-10T05:25:58;103196.53;;;-4.88;86.25
71774;BME280;59607;52.130;5.430;2024-01-10T05:28:25;103188.84;;;-4.88;86.29
71774;BME280;59607;52.130;5.430;2024-01-10T05:30:59;103174.38;;;-4.89;85.79
71774;BME280;59607;52.130;5.430;2024-01-10T05:33:26;103191.44;;;-4.91;86.62
71774;BME280;59607;52.130;5.430;2024-01-10T05:35:53;103186.28;;;-4.88;86.73
71774;BME280;59607;52.130;5.430;2024-01-10T05:38:23;103182.03;;;-4.89;86.31
71774;BME280;59607;52.130;5.430;2024-01-10T05:40:49;103183.75;;;-4.89;86.37
71774;BME280;59607;52.130;5.430;2024-01-10T05:43:16;103178.63;;;-4.89;86.60
71774;BME280;59607;52.130;5.430;2024-01-10T05:45:49;103180.34;;;-4.88;86.27
71774;BME280;59607;52.130;5.430;2024-01-10T05:48:16;103179.47;;;-4.86;86.60
71774;BME280;59607;52.130;5.430;2024-01-10T05:50:58;103177.78;;;-4.87;86.03
71774;BME280;59607;52.130;5.430;2024-01-10T05:53:37;103176.91;;;-4.87;86.15
71774;BME280;59607;52.130;5.430;2024-01-10T05:56:08;103181.16;;;-4.85;85.72
71774;BME280;59607;52.130;5.430;2024-01-10T05:58:34;103180.34;;;-4.84;86.13
71774;BME280;59607;52.130;5.430;2024-01-10T06:01:01;103170.09;;;-4.80;86.04
71774;BME280;59607;52.130;5.430;2024-01-10T06:03:28;103175.19;;;-4.79;86.15
71774;BME280;59607;52.130;5.430;2024-01-10T06:05:59;103172.63;;;-4.76;86.25
71774;BME280;59607;52.130;5.430;2024-01-10T06:08:25;103170.91;;;-4.78;85.93
71774;BME280;59607;52.130;5.430;2024-01-10T06:10:58;103181.16;;;-4.77;85.79
71774;BME280;59607;52.130;5.430;2024-01-10T06:13:27;103178.59;;;-4.74;86.15
71774;BME280;59607;52.130;5.430;2024-01-10T06:16:10;103181.16;;;-4.72;85.26
71774;BME280;59607;52.130;5.430;2024-01-10T06:18:42;103186.28;;;-4.72;85.42
71774;BME280;59607;52.130;5.430;2024-01-10T06:21:19;103182.84;;;-4.66;85.17
71774;BME280;59607;52.130;5.430;2024-01-10T06:23:52;103188.81;;;-4.64;85.16
71774;BME280;59607;52.130;5.430;2024-01-10T06:26:20;103189.66;;;-4.65;84.81
71774;BME280;59607;52.130;5.430;2024-01-10T06:28:49;103191.38;;;-4.66;85.29
71774;BME280;59607;52.130;5.430;2024-01-10T06:31:17;103191.38;;;-4.63;85.52
71774;BME280;59607;52.130;5.430;2024-01-10T06:33:44;103186.25;;;-4.61;85.17
71774;BME280;59607;52.130;5.430;2024-01-10T06:36:18;103173.44;;;-4.64;85.33
71774;BME280;59607;52.130;5.430;2024-01-10T06:38:45;103178.59;;;-4.66;85.33
71774;BME280;59607;52.130;5.430;2024-01-10T06:41:13;103175.16;;;-4.65;84.99
71774;BME280;59607;52.130;5.430;2024-01-10T06:44:08;103185.41;;;-4.65;85.28
71774;BME280;59607;52.130;5.430;2024-01-10T06:46:35;103178.59;;;-4.66;85.37
71774;BME280;59607;52.130;5.430;2024-01-10T06:49:04;103188.81;;;-4.63;85.16
71774;BME280;59607;52.130;5.430;2024-01-10T06:51:31;103176.84;;;-4.59;85.51
71774;BME280;59607;52.130;5.430;2024-01-10T06:53:58;103183.69;;;-4.61;85.08
71774;BME280;59607;52.130;5.430;2024-01-10T06:56:40;103182.00;;;-4.61;85.52
71774;BME280;59607;52.130;5.430;2024-01-10T06:59:14;103178.56;;;-4.63;85.48
71774;BME280;59607;52.130;5.430;2024-01-10T07:01:40;103187.94;;;-4.65;84.68
71774;BME280;59607;52.130;5.430;2024-01-10T07:04:10;103182.84;;;-4.66;85.51
71774;BME280;59607;52.130;5.430;2024-01-10T07:06:42;103183.72;;;-4.67;85.21
71774;BME280;59607;52.130;5.430;2024-01-10T07:09:11;103181.97;;;-4.67;84.91
71774;BME280;59607;52.130;5.430;2024-01-10T07:11:37;103184.53;;;-4.65;84.90
71774;BME280;59607;52.130;5.430;2024-01-10T07:14:04;103180.28;;;-4.68;85.19
71774;BME280;59607;52.130;5.430;2024-01-10T07:16:31;103181.97;;;-4.67;85.17
71774;BME280;59607;52.130;5.430;2024-01-10T07:19:02;103181.97;;;-4.64;84.84
71774;BME280;59607;52.130;5.430;2024-01-10T07:21:29;103184.53;;;-4.64;84.60
71774;BME280;59607;52.130;5.430;2024-01-10T07:23:55;103187.94;;;-4.62;84.64
71774;BME280;59607;52.130;5.430;2024-01-10T07:26:28;103180.25;;;-4.63;84.65
71774;BME280;59607;52.130;5.430;2024-01-10T07:28:54;103188.81;;;-4.64;84.53
71774;BME280;59607;52.130;5.430;2024-01-10T07:31:23;103193.94;;;-4.66;84.26
71774;BME280;59607;52.130;5.430;2024-01-10T07:33:50;103189.66;;;-4.64;84.21
71774;BME280;59607;52.130;5.430;2024-01-10T07:36:16;103192.22;;;-4.67;83.66
71774;BME280;59607;52.130;5.430;2024-01-10T07:38:44;103186.25;;;-4.66;83.77
71774;BME280;59607;52.130;5.430;2024-01-10T07:41:30;103187.09;;;-4.64;83.55
71774;BME280;59607;52.130;5.430;2024-01-10T07:43:56;103201.63;;;-4.64;83.28
71774;BME280;59607;52.130;5.430;2024-01-10T07:46:23;103201.56;;;-4.47;84.17
71774;BME280;59607;52.130;5.430;2024-01-10T07:48:53;103196.41;;;-4.41;83.60
71774;BME280;59607;52.130;5.430;2024-01-10T07:51:22;103195.56;;;-4.41;82.26
71774;BME280;59607;52.130;5.430;2024-01-10T07:53:49;103205.00;;;-4.50;82.03
71774;BME280;59607;52.130;5.430;2024-01-10T07:56:26;103210.94;;;-4.48;82.28
71774;BME280;59607;52.130;5.430;2024-01-10T07:58:53;103211.78;;;-4.41;81.54
71774;BME280;59607;52.130;5.430;2024-01-10T08:01:34;103227.13;;;-4.36;81.04
71774;BME280;59607;52.130;5.430;2024-01-10T08:04:03;103217.72;;;-4.31;80.94
71774;BME280;59607;52.130;5.430;2024-01-10T08:06:29;103223.69;;;-4.27;80.89
71774;BME280;59607;52.130;5.430;2024-01-10T08:08:59;103220.25;;;-4.22;79.65
71774;BME280;59607;52.130;5.430;2024-01-10T08:11:38;103212.56;;;-4.23;79.35
71774;BME280;59607;52.130;5.430;2024-01-10T08:14:04;103213.41;;;-4.19;78.80
71774;BME280;59607;52.130;5.430;2024-01-10T08:16:37;103218.53;;;-4.21;78.52
71774;BME280;59607;52.130;5.430;2024-01-10T08:19:03;103212.53;;;-4.11;78.84
71774;BME280;59607;52.130;5.430;2024-01-10T08:21:38;103222.75;;;-4.03;78.65
71774;BME280;59607;52.130;5.430;2024-01-10T08:24:05;103215.88;;;-3.96;77.97
71774;BME280;59607;52.130;5.430;2024-01-10T08:26:32;103206.44;;;-3.91;77.76
71774;BME280;59607;52.130;5.430;2024-01-10T08:29:07;103207.28;;;-3.87;76.47
71774;BME280;59607;52.130;5.430;2024-01-10T08:31:37;103203.88;;;-3.91;76.77
71774;BME280;59607;52.130;5.430;2024-01-10T08:34:06;103204.72;;;-3.89;76.97
71774;BME280;59607;52.130;5.430;2024-01-10T08:36:33;103202.09;;;-3.82;76.46
71774;BME280;59607;52.130;5.430;2024-01-10T08:39:15;103200.38;;;-3.79;76.29
71774;BME280;59607;52.130;5.430;2024-01-10T08:41:51;103199.53;;;-3.79;75.58
71774;BME280;59607;52.130;5.430;2024-01-10T08:44:20;103190.09;;;-3.76;74.96
71774;BME280;59607;52.130;5.430;2024-01-10T08:46:54;103192.66;;;-3.73;74.77
71774;BME280;59607;52.130;5.430;2024-01-10T08:49:21;103207.09;;;-3.57;74.68
71774;BME280;59607;52.130;5.430;2024-01-10T08:51:48;103204.50;;;-3.53;73.90
71774;BME280;59607;52.130;5.430;2024-01-10T08:54:17;103200.22;;;-3.52;73.10
71774;BME280;59607;52.130;5.430;2024-01-10T08:56:47;103189.91;;;-3.48;72.88
71774;BME280;59607;52.130;5.430;2024-01-10T08:59:17;103177.94;;;-3.50;72.17
71774;BME280;59607;52.130;5.430;2024-01-10T09:01:46;103179.69;;;-3.52;72.22
71774;BME280;59607;52.130;5.430;2024-01-10T09:04:13;103195.06;;;-3.51;71.88
71774;BME280;59607;52.130;5.430;2024-01-10T09:06:45;103196.72;;;-3.45;71.30
71774;BME280;59607;52.130;5.430;2024-01-10T09:09:12;103200.91;;;-3.31;71.13
71774;BME280;59607;52.130;5.430;2024-01-10T09:11:39;103198.28;;;-3.25;70.88
71774;BME280;59607;52.130;5.430;2024-01-10T09:14:12;103205.94;;;-3.19;70.16
71774;BME280;59607;52.130;5.430;2024-01-10T09:16:38;103199.97;;;-3.21;69.33
71774;BME280;59607;52.130;5.430;2024-01-10T09:19:08;103195.63;;;-3.16;68.64
71774;BME280;59607;52.130;5.430;2024-01-10T09:21:39;103210.13;;;-3.08;69.20
71774;BME280;59607;52.130;5.430;2024-01-10T09:24:06;103198.09;;;-3.00;68.95
71774;BME280;59607;52.130;5.430;2024-01-10T09:26:57;103186.78;;;-2.85;68.63
71774;BME280;59607;52.130;5.430;2024-01-10T09:29:24;103193.50;;;-2.71;67.92
71774;BME280;59607;52.130;5.430;2024-01-10T09:32:15;103189.22;;;-2.69;66.83
71774;BME280;59607;52.130;5.430;2024-01-10T09:34:45;103192.59;;;-2.67;66.42
71774;BME280;59607;52.130;5.430;2024-01-10T09:37:11;103188.28;;;-2.65;66.34
71774;BME280;59607;52.130;5.430;2024-01-10T09:39:53;103187.38;;;-2.61;65.77
71774;BME280;59607;52.130;5.430;2024-01-10T09:42:25;103191.56;;;-2.52;65.85
71774;BME280;59607;52.130;5.430;2024-01-10T09:44:52;103184.72;;;-2.50;64.37
71774;BME280;59607;52.130;5.430;2024-01-10T09:47:21;103187.19;;;-2.44;63.23
71774;BME280;59607;52.130;5.430;2024-01-10T09:50:00;103187.28;;;-2.50;62.76
71774;BME280;59607;52.130;5.430;2024-01-10T09:52:58;103189.84;;;-2.50;61.79
71774;BME280;59607;52.130;5.430;2024-01-10T09:55:36;103175.25;;;-2.50;62.46
71774;BME280;59607;52.130;5.430;2024-01-10T09:58:06;103188.84;;;-2.40;62.70
71774;BME280;59607;52.130;5.430;2024-01-10T10:00:36;103184.53;;;-2.36;61.04
71774;BME280;59607;52.130;5.430;2024-01-10T10:03:04;103183.63;;;-2.30;61.42
71774;BME280;59607;52.130;5.430;2024-01-10T10:05:35;103182.69;;;-2.25;60.11
71774;BME280;59607;52.130;5.430;2024-01-10T10:08:07;103184.34;;;-2.22;60.74
71774;BME280;59607;52.130;5.430;2024-01-10T10:10:42;103174.84;;;-2.15;59.95
71774;BME280;59607;52.130;5.430;2024-01-10T10:13:24;103185.88;;;-2.07;59.89
71774;BME280;59607;52.130;5.430;2024-01-10T10:16:01;103188.31;;;-1.99;59.65
71774;BME280;59607;52.130;5.430;2024-01-10T10:18:57;103188.19;;;-1.90;59.52
71774;BME280;59607;52.130;5.430;2024-01-10T10:21:28;103187.19;;;-1.78;59.70
71774;BME280;59607;52.130;5.430;2024-01-10T10:24:15;103185.53;;;-1.82;59.08
71774;BME280;59607;52.130;5.430;2024-01-10T10:26:59;103186.25;;;-1.72;59.07
71774;BME280;59607;52.130;5.430;2024-01-10T10:29:28;103184.38;;;-1.64;58.13
71774;BME280;59607;52.130;5.430;2024-01-10T10:31:55;103177.41;;;-1.57;57.85
71774;BME280;59607;52.130;5.430;2024-01-10T10:34:21;103175.72;;;-1.58;57.95
71774;BME280;59607;52.130;5.430;2024-01-10T10:37:07;103174.75;;;-1.51;58.60
71774;BME280;59607;52.130;5.430;2024-01-10T10:39:52;103163.56;;;-1.48;57.76
71774;BME280;59607;52.130;5.430;2024-01-10T10:42:26;103169.34;;;-1.33;57.33
71774;BME280;59607;52.130;5.430;2024-01-10T10:45:02;103161.66;;;-1.37;56.19
71774;BME280;59607;52.130;5.430;2024-01-10T10:47:36;103159.09;;;-1.37;54.21
71774;BME280;59607;52.130;5.430;2024-01-10T10:50:05;103160.69;;;-1.31;56.16
71774;BME280;59607;52.130;5.430;2024-01-10T10:52:33;103162.31;;;-1.23;55.22
71774;BME280;59607;52.130;5.430;2024-01-10T10:55:09;103166.44;;;-1.16;54.76
71774;BME280;59607;52.130;5.430;2024-01-10T10:57:39;103165.50;;;-1.10;55.44
71774;BME280;59607;52.130;5.430;2024-01-10T11:00:20;103148.91;;;-0.95;55.12
71774;BME280;59607;52.130;5.430;2024-01-10T11:02:54;103154.00;;;-0.92;55.39
71774;BME280;59607;52.130;5.430;2024-01-10T11:05:30;103158.00;;;-0.77;55.15
71774;BME280;59607;52.130;5.430;2024-01-10T11:08:02;103165.78;;;-0.79;54.23
71774;BME280;59607;52.130;5.430;2024-01-10T11:11:26;103161.50;;;-0.80;54.49
71774;BME280;59607;52.130;5.430;2024-01-10T11:22:49;103157.75;;;-0.65;53.51
71774;BME280;59607;52.130;5.430;2024-01-10T11:25:38;103150.81;;;-0.61;53.39
71774;BME280;59607;52.130;5.430;2024-01-10T11:28:12;103150.84;;;-0.63;53.05
71774;BME280;59607;52.130;5.430;2024-01-10T11:30:52;103149.09;;;-0.60;52.22
71774;BME280;59607;52.130;5.430;2024-01-10T11:33:44;103151.59;;;-0.57;52.22
71774;BME280;59607;52.130;5.430;2024-01-10T11:36:19;103154.75;;;-0.43;52.25
71774;BME280;59607;52.130;5.430;2024-01-10T11:39:04;103142.78;;;-0.47;52.24
71774;BME280;59607;52.130;5.430;2024-01-10T11:41:38;103145.47;;;-0.52;50.97
71774;BME280;59607;52.130;5.430;2024-01-10T11:47:03;103134.25;;;-0.49;50.87
71774;BME280;59607;52.130;5.430;2024-01-10T11:49:30;103134.03;;;-0.38;50.83
71774;BME280;59607;52.130;5.430;2024-01-10T11:52:03;103134.81;;;-0.34;50.66
71774;BME280;59607;52.130;5.430;2024-01-10T11:54:39;103132.09;;;-0.28;50.84
71774;BME280;59607;52.130;5.430;2024-01-10T11:57:28;103132.78;;;-0.20;49.93
71774;BME280;59607;52.130;5.430;2024-01-10T12:00:07;103133.50;;;-0.13;50.57
71774;BME280;59607;52.130;5.430;2024-01-10T12:02:34;103126.44;;;-0.06;50.64
71774;BME280;59607;52.130;5.430;2024-01-10T12:05:21;103127.03;;;0.05;49.81
71774;BME280;59607;52.130;5.430;2024-01-10T12:07:50;103125.34;;;0.04;48.81
71774;BME280;59607;52.130;5.430;2024-01-10T12:10:18;103120.16;;;0.06;49.10
71774;BME280;59607;52.130;5.430;2024-01-10T12:12:48;103119.09;;;0.13;49.44
71774;BME280;59607;52.130;5.430;2024-01-10T12:15:14;103117.50;;;0.09;48.75
71774;BME280;59607;52.130;5.430;2024-01-10T12:17:41;103110.31;;;0.22;48.55
71774;BME280;59607;52.130;5.430;2024-01-10T12:20:13;103098.28;;;0.21;47.81
71774;BME280;59607;52.130;5.430;2024-01-10T12:22:49;103112.00;;;0.23;48.16
71774;BME280;59607;52.130;5.430;2024-01-10T12:25:22;103103.31;;;0.27;48.79
71774;BME280;59607;52.130;5.430;2024-01-10T12:27:48;103108.25;;;0.35;49.22
71774;BME280;59607;52.130;5.430;2024-01-10T12:30:25;103101.28;;;0.39;49.08
71774;BME280;59607;52.130;5.430;2024-01-10T12:32:55;103097.75;;;0.43;48.78
71774;BME280;59607;52.130;5.430;2024-01-10T12:35:28;103100.88;;;0.54;48.92
71774;BME280;59607;52.130;5.430;2024-01-10T12:37:58;103096.41;;;0.61;48.55
71774;BME280;59607;52.130;5.430;2024-01-10T12:40:32;103109.38;;;0.59;48.33
71774;BME280;59607;52.130;5.430;2024-01-10T12:43:10;103098.19;;;0.59;48.66
71774;BME280;59607;52.130;5.430;2024-01-10T12:45:39;103094.78;;;0.57;48.47
71774;BME280;59607;52.130;5.430;2024-01-10T12:48:13;103086.94;;;0.61;48.13
71774;BME280;59607;52.130;5.430;2024-01-10T12:50:45;103086.94;;;0.61;47.89
71774;BME280;59607;52.130;5.430;2024-01-10T12:53:25;103086.88;;;0.65;47.59
71774;BME280;59607;52.130;5.430;2024-01-10T12:56:25;103086.91;;;0.63;47.77
71774;BME280;59607;52.130;5.430;2024-01-10T12:59:05;103088.63;;;0.63;47.82
71774;BME280;59607;52.130;5.430;2024-01-10T13:01:37;103081.81;;;0.60;47.56
71774;BME280;59607;52.130;5.430;2024-01-10T13:04:06;103091.94;;;0.68;47.47
71774;BME280;59607;52.130;5.430;2024-01-10T13:06:35;103090.16;;;0.70;47.63
71774;BME280;59607;52.130;5.430;2024-01-10T13:09:02;103090.28;;;0.65;48.05
71774;BME280;59607;52.130;5.430;2024-01-10T13:11:32;103089.28;;;0.71;48.34
71774;BME280;59607;52.130;5.430;2024-01-10T13:14:00;103091.00;;;0.70;48.12
71774;BME280;59607;52.130;5.430;2024-01-10T13:16:30;103081.69;;;0.65;48.20
71774;BME280;59607;52.130;5.430;2024-01-10T13:19:08;103096.03;;;0.75;47.27
71774;BME280;59607;52.130;5.430;2024-01-10T13:21:37;103090.09;;;0.73;47.76
71774;BME280;59607;52.130;5.430;2024-01-10T13:24:08;103085.91;;;0.67;47.10
71774;BME280;59607;52.130;5.430;2024-01-10T13:26:37;103085.97;;;0.66;48.22